Time;durP1;ratioP1;P1;durP2;ratioP2;P2;SDS_P1;SDS_P2;PMS_P1;PMS_P2;Temp;Humidity;BMP_temperature;BMP_pressure;BME280_temperature;BME280_humidity;BME280_pressure;Samples;Min_cycle;Max_cycle;Signal;HPM_P1;HPM_P2
2023/06/07 00:02:01;;;;;;;4.47;3.57;;;13.80;99.90;13.10;100794;;;;590007;243;24072;-85
2023/06/07 00:04:30;;;;;;;4.13;3.13;;;13.80;99.90;13.10;100793;;;;590290;243;24062;-86
2023/06/07 00:07:01;;;;;;;3.13;2.50;;;13.80;99.90;13.10;100794;;;;590153;241;24059;-87
2023/06/07 00:09:25;;;;;;;2.87;2.67;;;13.70;99.90;13.00;100793;;;;590433;243;24095;-88
2023/06/07 00:11:53;;;;;;;2.60;2.40;;;13.70;99.90;13.00;100791;;;;590625;243;24108;-86
2023/06/07 00:14:21;;;;;;;3.40;2.60;;;13.70;99.90;13.00;100793;;;;590542;243;24077;-86
2023/06/07 00:16:50;;;;;;;3.17;2.63;;;13.70;99.90;12.90;100788;;;;590381;243;24062;-84
2023/06/07 00:19:23;;;;;;;2.90;2.30;;;13.70;99.90;12.90;100789;;;;590294;241;24082;-84
2023/06/07 00:21:53;;;;;;;3.50;2.70;;;13.60;99.90;12.90;100782;;;;589741;243;25100;-80
2023/06/07 00:24:18;;;;;;;2.67;2.47;;;13.60;99.90;12.90;100784;;;;589641;243;24113;-85
2023/06/07 00:26:50;;;;;;;4.33;2.17;;;13.60;99.90;12.90;100785;;;;590013;243;25101;-82
2023/06/07 00:29:16;;;;;;;6.93;3.00;;;13.50;99.90;12.80;100782;;;;589191;243;24108;-83
2023/06/07 00:31:47;;;;;;;2.87;2.67;;;13.50;99.90;12.80;100781;;;;589913;243;24080;-85
2023/06/07 00:34:12;;;;;;;3.93;3.33;;;13.50;99.90;12.80;100790;;;;589620;243;24164;-87
2023/06/07 00:36:40;;;;;;;4.43;2.90;;;13.50;99.90;12.80;100785;;;;590099;243;24098;-86
2023/06/07 00:39:09;;;;;;;2.37;2.17;;;13.50;99.90;12.70;100785;;;;590060;243;24101;-85
2023/06/07 00:41:36;;;;;;;2.60;2.40;;;13.40;99.90;12.70;100790;;;;590286;243;24107;-86
2023/06/07 00:44:05;;;;;;;6.17;2.90;;;13.40;99.90;12.70;100776;;;;590252;243;24109;-87
2023/06/07 00:46:36;;;;;;;5.10;2.43;;;13.40;99.90;12.70;100789;;;;590170;243;24105;-86
2023/06/07 00:49:03;;;;;;;4.73;2.77;;;13.40;99.90;12.60;100789;;;;590581;240;24062;-84
2023/06/07 00:51:32;;;;;;;4.33;3.10;;;13.40;99.90;12.60;100785;;;;591366;243;24050;-85
2023/06/07 00:53:56;;;;;;;4.63;3.23;;;13.30;99.90;12.60;100782;;;;590960;241;25100;-85
2023/06/07 00:56:24;;;;;;;3.53;2.83;;;13.20;99.90;12.60;100775;;;;590853;243;24079;-87
2023/06/07 00:58:52;;;;;;;4.37;3.37;;;13.20;99.90;12.50;100771;;;;590148;239;24097;-86
2023/06/07 01:01:20;;;;;;;5.97;3.07;;;13.20;99.90;12.50;100775;;;;590700;243;24064;-87
2023/06/07 01:03:51;;;;;;;4.37;2.77;;;13.20;99.90;12.50;100777;;;;590664;243;24055;-86
2023/06/07 01:06:16;;;;;;;4.00;2.80;;;13.20;99.90;12.50;100781;;;;590202;243;24061;-85
2023/06/07 01:08:44;;;;;;;7.63;4.10;;;13.10;99.90;12.40;100778;;;;590064;243;24114;-86
2023/06/07 01:11:12;;;;;;;4.20;3.30;;;13.10;99.90;12.40;100777;;;;589673;243;24103;-84
2023/06/07 01:13:42;;;;;;;5.20;3.20;;;13.00;99.90;12.30;100775;;;;589691;243;24055;-84
2023/06/07 01:16:08;;;;;;;6.13;3.17;;;13.00;99.90;12.30;100769;;;;589396;243;24098;-85
2023/06/07 01:18:38;;;;;;;5.40;3.73;;;13.00;99.90;12.30;100769;;;;589970;243;24103;-84
2023/06/07 01:21:03;;;;;;;6.43;4.10;;;12.90;99.90;12.30;100773;;;;589914;241;24098;-84
2023/06/07 01:23:34;;;;;;;4.83;2.90;;;13.00;99.90;12.20;100768;;;;590061;243;24070;-82
2023/06/07 01:26:04;;;;;;;3.30;3.00;;;12.90;99.90;12.20;100765;;;;589460;242;24105;-81
2023/06/07 01:28:33;;;;;;;4.77;3.20;;;12.80;99.90;12.20;100766;;;;589297;243;24062;-83
2023/06/07 01:31:02;;;;;;;4.43;3.57;;;12.80;99.90;12.10;100763;;;;571376;248;24100;-80
2023/06/07 01:33:26;;;;;;;3.33;3.03;;;12.80;99.90;12.10;100760;;;;571082;249;24145;-81
2023/06/07 01:35:58;;;;;;;4.37;3.60;;;12.30;99.90;12.10;100763;;;;585281;244;24111;-82
2023/06/07 01:38:23;;;;;;;5.10;3.57;;;12.70;99.90;12.00;100760;;;;584798;245;24087;-86
2023/06/07 01:40:55;;;;;;;6.07;3.77;;;12.70;99.90;12.00;100763;;;;585224;245;24085;-81
2023/06/07 01:43:22;;;;;;;10.00;4.27;;;12.60;99.90;11.90;100756;;;;584454;245;24057;-87
2023/06/07 01:45:47;;;;;;;8.87;3.83;;;12.60;99.90;11.80;100761;;;;584333;245;24087;-87
2023/06/07 01:48:18;;;;;;;6.17;4.07;;;12.50;99.90;11.70;100759;;;;584856;245;24081;-83
2023/06/07 01:50:49;;;;;;;6.83;3.93;;;12.40;99.90;11.70;100755;;;;584752;245;24080;-81
2023/06/07 01:53:14;;;;;;;5.00;3.93;;;12.40;99.90;11.70;100758;;;;584727;245;24062;-82
2023/06/07 01:55:42;;;;;;;5.27;4.10;;;12.40;99.90;11.70;100753;;;;584731;245;24097;-79
2023/06/07 01:58:37;;;;;;;5.77;3.87;;;12.40;99.90;11.80;100754;;;;584566;241;24066;-82
2023/06/07 02:01:18;;;;;;;6.63;4.27;;;12.50;99.90;11.80;100755;;;;572530;249;24142;-81
2023/06/07 02:03:45;;;;;;;8.33;4.60;;;12.40;99.90;11.70;100749;;;;585562;245;24087;-79
2023/06/07 02:06:13;;;;;;;6.87;3.93;;;12.40;99.90;11.70;100746;;;;585856;245;24063;-85
2023/06/07 02:08:41;;;;;;;12.60;4.70;;;12.40;99.90;11.70;100744;;;;585450;245;24082;-81
2023/06/07 02:11:12;;;;;;;5.50;4.07;;;12.40;99.90;11.60;100743;;;;584974;245;24108;-82
2023/06/07 02:13:37;;;;;;;8.50;3.57;;;12.30;99.90;11.60;100741;;;;584964;244;24111;-84
2023/06/07 02:16:05;;;;;;;4.40;3.30;;;12.40;99.90;11.60;100750;;;;585012;245;24093;-85
2023/06/07 02:18:51;;;;;;;5.70;3.90;;;12.30;99.90;11.60;100749;;;;585092;245;24109;-82
2023/06/07 02:21:07;;;;;;;9.10;4.67;;;12.30;99.90;11.60;100750;;;;583840;245;24110;-86
2023/06/07 02:23:35;;;;;;;6.13;4.37;;;12.30;99.90;11.60;100743;;;;584664;245;24072;-82
2023/06/07 02:25:59;;;;;;;5.83;3.93;;;12.30;99.90;11.60;100741;;;;584719;244;24097;-83
2023/06/07 02:28:28;;;;;;;8.30;4.30;;;12.30;99.90;11.60;100749;;;;584958;245;24130;-80
2023/06/07 02:30:57;;;;;;;10.73;4.60;;;12.20;99.90;11.60;100743;;;;585198;245;24107;-85
2023/06/07 02:33:26;;;;;;;7.97;4.20;;;12.30;99.90;11.60;100739;;;;585199;245;24096;-86
2023/06/07 02:35:54;;;;;;;7.03;4.33;;;12.30;99.90;11.70;100746;;;;585778;245;24131;-84
2023/06/07 02:38:23;;;;;;;9.27;4.33;;;12.30;99.90;11.70;100744;;;;585617;245;24080;-81
2023/06/07 02:40:54;;;;;;;10.73;4.03;;;12.40;99.90;11.70;100748;;;;585510;245;24109;-87
2023/06/07 02:43:18;;;;;;;6.50;4.07;;;12.30;99.90;11.70;100742;;;;585357;245;24085;-85
2023/06/07 02:45:47;;;;;;;4.87;4.13;;;12.40;99.90;11.80;100747;;;;585663;245;24147;-84
2023/06/07 02:48:16;;;;;;;7.87;5.20;;;12.50;99.90;11.80;100743;;;;580605;245;35118;-87
2023/06/07 02:50:47;;;;;;;4.57;4.17;;;12.50;99.90;11.90;100745;;;;584815;245;24073;-86
2023/06/07 02:53:11;;;;;;;7.30;4.17;;;12.70;99.90;12.00;100740;;;;584494;245;24074;-86
2023/06/07 02:55:40;;;;;;;8.70;4.00;;;12.70;99.90;12.10;100747;;;;585390;245;24072;-85
2023/06/07 02:58:09;;;;;;;5.03;3.80;;;12.80;99.90;12.10;100746;;;;585133;241;24069;-85
2023/06/07 03:00:37;;;;;;;6.33;4.23;;;12.90;99.90;12.20;100751;;;;585627;245;24096;-86
2023/06/07 03:03:05;;;;;;;5.00;4.07;;;13.00;99.90;12.30;100744;;;;585480;245;24150;-84
2023/06/07 03:05:33;;;;;;;7.00;4.03;;;13.00;99.90;12.40;100755;;;;585760;245;24058;-88
2023/06/07 03:08:02;;;;;;;5.43;4.17;;;13.10;99.90;12.50;100754;;;;585836;245;24088;-87
2023/06/07 03:10:33;;;;;;;12.63;4.90;;;13.10;99.90;12.60;100756;;;;585649;245;24061;-87
2023/06/07 03:12:57;;;;;;;7.53;4.00;;;13.20;99.90;12.70;100752;;;;586134;243;24065;-86
2023/06/07 03:15:27;;;;;;;6.10;4.47;;;13.40;99.90;12.80;100753;;;;586449;245;24060;-85
2023/06/07 03:17:54;;;;;;;6.10;4.23;;;13.40;99.90;13.20;100750;;;;586072;245;24126;-84
2023/06/07 03:20:22;;;;;;;7.33;3.53;;;14.10;99.90;13.70;100757;;;;585976;245;24087;-87
2023/06/07 03:22:50;;;;;;;5.13;3.73;;;14.20;99.90;14.20;100761;;;;585533;245;24123;-83
2023/06/07 03:25:21;;;;;;;4.17;3.83;;;14.70;99.90;14.70;100755;;;;585640;245;24057;-85
2023/06/07 03:27:46;;;;;;;7.07;4.33;;;15.10;99.90;15.00;100755;;;;585204;244;24091;-85
2023/06/07 03:30:13;;;;;;;5.93;4.30;;;15.50;99.90;15.00;100753;;;;585327;245;24070;-85
2023/06/07 03:32:45;;;;;;;5.60;3.73;;;15.60;99.90;15.00;100759;;;;585153;245;24073;-86
2023/06/07 03:35:09;;;;;;;8.73;3.57;;;15.60;99.90;15.20;100758;;;;584687;245;24124;-83
2023/06/07 03:37:37;;;;;;;6.20;4.47;;;15.70;99.90;15.70;100758;;;;585630;245;24116;-86
2023/06/07 03:40:05;;;;;;;5.40;4.23;;;16.10;99.90;16.30;100764;;;;585727;245;24064;-84
2023/06/07 03:42:34;;;;;;;5.73;4.27;;;17.50;99.90;17.00;100766;;;;585540;245;24122;-82
2023/06/07 03:45:05;;;;;;;7.67;4.20;;;17.40;99.90;17.80;100769;;;;585385;245;24050;-82
2023/06/07 03:47:30;;;;;;;8.30;3.80;;;18.20;99.90;18.50;100773;;;;585253;245;24053;-81
2023/06/07 03:50:01;;;;;;;5.43;3.80;;;19.00;99.90;19.20;100779;;;;585148;245;23154;-80
2023/06/07 03:52:25;;;;;;;6.70;4.37;;;19.70;99.90;19.80;100777;;;;584877;245;23078;-80
2023/06/07 03:54:53;;;;;;;10.00;4.80;;;20.30;99.90;20.20;100787;;;;585032;245;24081;-86
2023/06/07 03:57:21;;;;;;;9.47;4.00;;;20.80;99.90;20.80;100786;;;;584892;241;24113;-81
2023/06/07 03:59:49;;;;;;;4.93;3.60;;;21.30;99.90;21.50;100779;;;;585009;245;24081;-84
2023/06/07 04:02:17;;;;;;;9.60;3.77;;;22.00;99.90;22.10;100793;;;;584932;245;24085;-86
2023/06/07 04:04:45;;;;;;;7.57;3.70;;;22.70;99.90;22.70;100791;;;;584830;245;24102;-80
2023/06/07 04:07:13;;;;;;;5.40;3.37;;;23.30;99.90;23.30;100800;;;;585222;245;23071;-82
2023/06/07 04:09:41;;;;;;;4.17;3.53;;;23.90;99.60;23.80;100796;;;;585338;245;23118;-80
2023/06/07 04:12:08;;;;;;;17.93;4.23;;;24.40;97.20;24.30;100797;;;;585578;245;23080;-83
2023/06/07 04:14:36;;;;;;;6.23;3.37;;;24.90;95.10;24.70;100794;;;;585432;245;23082;-84
2023/06/07 04:17:08;;;;;;;5.43;3.27;;;25.50;93.50;25.10;100795;;;;585005;245;23082;-80
2023/06/07 04:19:32;;;;;;;3.00;2.80;;;25.90;91.60;25.60;100797;;;;584452;245;23079;-81
2023/06/07 04:22:04;;;;;;;3.37;3.07;;;26.30;90.70;26.10;100791;;;;584959;245;23090;-79
2023/06/07 04:24:28;;;;;;;5.53;3.55;;;26.80;88.50;26.20;100801;;;;585818;243;23130;-79
2023/06/07 04:26:56;;;;;;;10.80;3.50;;;27.00;85.20;26.60;100801;;;;585941;245;23090;-79
2023/06/07 04:29:27;;;;;;;6.28;3.50;;;27.40;83.80;26.90;100803;;;;585799;245;23110;-79
2023/06/07 04:31:56;;;;;;;21.30;4.45;;;27.70;81.70;26.80;100804;;;;585416;244;23099;-78
2023/06/07 04:34:21;;;;;;;54.10;7.32;;;27.70;79.20;26.00;100803;;;;585058;245;23093;-80
2023/06/07 04:36:49;;;;;;;6.00;3.60;;;27.10;80.10;26.30;100797;;;;585682;245;23134;-81
2023/06/07 04:39:19;;;;;;;5.43;3.55;;;27.10;80.10;27.20;100814;;;;585754;245;23074;-78
2023/06/07 04:41:45;;;;;;;54.47;7.07;;;27.90;79.60;27.80;100809;;;;585392;244;23069;-83
2023/06/07 04:44:12;;;;;;;118.70;12.63;;;28.60;75.60;27.40;100807;;;;585390;245;24049;-83
2023/06/07 04:46:40;;;;;;;17.30;4.30;;;28.30;73.80;27.40;100816;;;;585373;245;23079;-82
2023/06/07 04:49:08;;;;;;;36.05;5.62;;;28.20;73.60;27.40;100818;;;;585598;245;24192;-80
2023/06/07 04:51:36;;;;;;;19.75;4.70;;;28.20;73.20;28.10;100816;;;;585681;245;24119;-81
2023/06/07 04:54:08;;;;;;;20.95;6.18;;;29.70;70.70;28.90;100821;;;;576511;245;23118;-82
2023/06/07 04:56:33;;;;;;;6.75;3.30;;;29.50;68.30;28.50;100816;;;;573269;245;23105;-82
2023/06/07 04:59:01;;;;;;;44.42;5.78;;;29.40;68.20;27.90;100815;;;;585222;245;24149;-82
2023/06/07 05:01:32;;;;;;;10.38;2.90;;;28.80;69.00;28.30;100825;;;;576081;245;23066;-82
2023/06/07 05:04:03;;;;;;;5.40;3.12;;;29.00;69.40;29.70;100824;;;;584682;245;23099;-83
2023/06/07 05:06:29;;;;;;;4.85;3.17;;;31.80;64.20;31.10;100825;;;;585258;244;24114;-83
2023/06/07 05:08:57;;;;;;;4.25;2.85;;;31.70;64.00;32.50;100830;;;;585365;245;23093;-81
2023/06/07 05:11:25;;;;;;;10.30;3.75;;;33.20;60.50;33.70;100827;;;;585312;244;23082;-84
2023/06/07 05:13:52;;;;;;;17.05;4.62;;;34.40;56.30;34.20;100829;;;;585384;245;23057;-83
2023/06/07 05:16:20;;;;;;;13.55;4.53;;;35.20;54.00;34.80;100837;;;;585454;245;23132;-83
2023/06/07 05:18:49;;;;;;;8.23;4.82;;;36.20;51.10;35.30;100827;;;;585409;244;23106;-83
2023/06/07 05:21:18;;;;;;;3.50;3.20;;;36.80;50.70;35.90;100837;;;;585371;245;23113;-85
2023/06/07 05:23:49;;;;;;;15.85;5.28;;;36.70;50.20;36.30;100837;;;;585378;245;23083;-85
2023/06/07 05:26:14;;;;;;;10.50;3.45;;;37.20;48.80;36.90;100836;;;;575862;245;23177;-85
2023/06/07 05:28:41;;;;;;;11.10;3.33;;;37.70;48.00;37.40;100834;;;;585380;245;23108;-80
2023/06/07 05:31:11;;;;;;;5.12;3.28;;;38.20;47.20;38.20;100844;;;;580238;245;23110;-83
2023/06/07 05:33:38;;;;;;;7.10;3.33;;;38.80;46.20;38.60;100854;;;;585306;245;23105;-83
2023/06/07 05:36:06;;;;;;;4.25;3.50;;;39.40;43.70;38.60;100848;;;;586602;243;23113;-83
2023/06/07 05:38:35;;;;;;;17.25;4.43;;;39.40;43.70;37.60;100848;;;;586117;245;23065;-83
2023/06/07 05:41:02;;;;;;;5.95;3.72;;;38.60;43.70;36.50;100853;;;;585915;245;23069;-84
2023/06/07 05:43:30;;;;;;;4.40;3.35;;;37.60;45.10;35.40;100851;;;;585778;244;24094;-83
2023/06/07 05:45:58;;;;;;;6.32;3.17;;;36.40;45.50;35.50;100848;;;;585619;245;23065;-84
2023/06/07 05:48:26;;;;;;;14.70;4.00;;;36.10;46.50;36.70;100848;;;;585433;245;23124;-82
2023/06/07 05:50:57;;;;;;;12.20;3.80;;;37.00;46.70;37.30;100854;;;;585425;245;23094;-84
2023/06/07 05:53:22;;;;;;;6.53;3.05;;;37.60;45.30;37.90;100850;;;;585167;245;23085;-83
2023/06/07 05:55:49;;;;;;;24.05;5.28;;;38.20;45.40;38.40;100855;;;;568501;245;35125;-83
2023/06/07 05:58:18;;;;;;;5.50;2.87;;;38.70;44.10;38.90;100858;;;;585350;241;23088;-83
2023/06/07 06:00:47;;;;;;;5.87;2.85;;;39.20;42.90;39.80;100860;;;;585073;245;23136;-83
2023/06/07 06:03:16;;;;;;;7.03;3.25;;;40.10;42.50;39.30;100866;;;;585538;245;23085;-82
2023/06/07 06:05:44;;;;;;;4.20;3.20;;;40.00;41.90;38.60;100862;;;;585060;245;23113;-83
2023/06/07 06:08:09;;;;;;;7.60;3.20;;;39.30;42.80;38.70;100867;;;;585340;244;24118;-82
2023/06/07 06:10:37;;;;;;;6.07;3.67;;;39.20;42.00;38.70;100866;;;;585621;245;24146;-80
2023/06/07 06:13:05;;;;;;;4.60;2.87;;;39.20;42.00;38.40;100860;;;;576485;245;23062;-82
2023/06/07 06:15:34;;;;;;;6.18;3.12;;;39.50;42.40;39.30;100867;;;;585404;245;23105;-84
2023/06/07 06:18:03;;;;;;;7.82;3.47;;;40.50;41.70;40.40;100866;;;;585390;245;23080;-82
2023/06/07 06:20:33;;;;;;;3.55;3.10;;;40.50;41.70;41.50;100877;;;;585427;245;23150;-84
2023/06/07 06:22:59;;;;;;;9.82;3.05;;;41.60;41.20;42.50;100876;;;;585229;245;23058;-85
2023/06/07 06:25:28;;;;;;;3.97;2.80;;;42.60;40.30;43.40;100877;;;;585263;245;24141;-84
2023/06/07 06:27:54;;;;;;;8.40;3.55;;;43.60;39.70;44.40;100878;;;;585270;245;23085;-83
2023/06/07 06:30:23;;;;;;;31.00;6.57;;;44.60;38.70;45.00;100876;;;;585375;245;23058;-84
2023/06/07 06:32:51;;;;;;;3.47;3.17;;;45.30;38.00;45.30;100875;;;;585308;245;23122;-83
2023/06/07 06:35:17;;;;;;;4.97;3.33;;;45.60;37.20;45.50;100879;;;;585420;245;23108;-85
2023/06/07 06:37:45;;;;;;;3.78;2.80;;;45.90;36.80;45.80;100877;;;;585483;245;23051;-85
2023/06/07 06:40:13;;;;;;;4.03;2.90;;;46.10;35.90;45.90;100883;;;;585135;244;23084;-83
2023/06/07 06:42:41;;;;;;;3.37;2.78;;;46.30;35.50;46.20;100880;;;;584973;245;23055;-83
2023/06/07 06:45:10;;;;;;;4.28;2.90;;;46.50;34.90;46.10;100886;;;;585123;245;23108;-82
2023/06/07 06:47:41;;;;;;;4.20;3.05;;;46.50;34.10;46.00;100890;;;;586295;243;23127;-86
2023/06/07 06:50:05;;;;;;;3.72;2.75;;;46.50;34.40;46.10;100886;;;;577084;245;23115;-85
2023/06/07 06:52:33;;;;;;;6.45;3.40;;;46.50;34.60;46.70;100889;;;;574222;245;23062;-83
2023/06/07 06:55:01;;;;;;;3.28;2.97;;;46.90;34.40;47.00;100891;;;;582960;244;23159;-86
2023/06/07 06:57:32;;;;;;;6.53;3.58;;;47.30;34.10;47.50;100892;;;;582795;244;23126;-85
2023/06/07 06:59:57;;;;;;;8.63;3.40;;;47.70;33.70;48.10;100895;;;;569587;247;23058;-85
2023/06/07 07:02:25;;;;;;;5.20;3.28;;;48.10;33.60;48.50;100895;;;;572831;244;23098;-84
2023/06/07 07:04:53;;;;;;;9.98;3.67;;;48.60;33.40;48.60;100901;;;;572329;242;23126;-86
2023/06/07 07:07:21;;;;;;;3.35;2.75;;;48.80;32.50;48.90;100895;;;;567916;249;24179;-86
2023/06/07 07:09:49;;;;;;;5.80;3.00;;;49.00;32.00;48.90;100895;;;;584553;241;23072;-86
2023/06/07 07:12:21;;;;;;;3.50;3.17;;;49.20;31.70;49.10;100895;;;;575589;246;23102;-85
2023/06/07 07:14:49;;;;;;;4.82;3.53;;;49.30;32.00;49.30;100902;;;;584205;246;23076;-84
2023/06/07 07:17:16;;;;;;;4.00;3.55;;;49.50;31.90;49.50;100897;;;;573587;246;23192;-85
2023/06/07 07:19:44;;;;;;;6.00;3.45;;;49.60;31.60;49.90;100898;;;;575498;246;23064;-83
2023/06/07 07:22:12;;;;;;;4.40;4.00;;;50.00;31.00;50.00;100903;;;;575451;246;23070;-83
2023/06/07 07:24:40;;;;;;;4.85;4.53;;;50.10;30.30;50.10;100902;;;;575440;246;23100;-86
2023/06/07 07:27:21;;;;;;;;;;;;;;;;;;;;;
2023/06/07 07:29:39;;;;;;;4.45;3.55;;;50.60;29.80;50.70;100898;;;;575110;243;23112;-88
2023/06/07 07:32:11;;;;;;;4.07;3.67;;;50.80;29.60;51.10;100903;;;;575980;246;23106;-87
2023/06/07 07:34:43;;;;;;;9.98;5.45;;;51.20;29.40;51.20;100899;;;;575722;246;23119;-88
2023/06/07 07:37:09;;;;;;;10.45;3.75;;;51.40;29.20;51.20;100908;;;;575095;246;23174;-90
2023/06/07 07:39:37;;;;;;;3.92;3.62;;;51.40;28.70;51.20;100910;;;;575441;246;23091;-86
2023/06/07 07:42:08;;;;;;;4.15;3.55;;;51.50;28.70;51.40;100905;;;;574982;246;24143;-86
2023/06/07 07:44:36;;;;;;;6.47;3.55;;;51.60;28.50;51.60;100912;;;;567131;249;24134;-86
2023/06/07 07:47:03;;;;;;;4.62;3.58;;;51.80;28.50;51.80;100905;;;;563921;250;23122;-86
2023/06/07 07:49:31;;;;;;;4.95;3.50;;;52.00;28.90;52.00;100907;;;;570441;239;23110;-88
2023/06/07 07:51:59;;;;;;;3.85;3.05;;;52.20;29.20;52.20;100902;;;;576028;244;23070;-86
2023/06/07 07:54:29;;;;;;;3.35;3.05;;;52.40;29.10;52.30;100902;;;;588004;240;23074;-86
2023/06/07 07:56:55;;;;;;;3.75;3.30;;;52.50;29.30;52.50;100902;;;;593444;240;23118;-90
2023/06/07 07:59:23;;;;;;;3.55;3.25;;;52.70;29.40;52.40;100902;;;;588704;240;23034;-88
2023/06/07 08:01:51;;;;;;;3.28;3.08;;;52.60;29.60;52.00;100905;;;;586128;241;23071;-86
2023/06/07 08:04:19;;;;;;;4.62;3.47;;;52.30;29.00;51.70;100906;;;;588642;240;23058;-86
2023/06/07 08:06:48;;;;;;;4.85;3.62;;;52.00;29.20;51.60;100914;;;;585274;241;23059;-88
2023/06/07 08:09:16;;;;;;;6.70;3.20;;;52.00;29.20;51.80;100909;;;;588147;240;23093;-83
2023/06/07 08:11:47;;;;;;;3.35;3.15;;;52.10;29.20;52.20;100908;;;;583389;242;23059;-87
2023/06/07 08:14:12;;;;;;;7.28;3.83;;;52.40;29.30;52.30;100905;;;;587254;240;23050;-87
2023/06/07 08:16:44;;;;;;;4.12;3.45;;;52.50;29.10;52.00;100905;;;;584183;242;23042;-88
2023/06/07 08:19:10;;;;;;;4.97;3.20;;;52.40;29.30;52.10;100917;;;;587271;240;23068;-85
2023/06/07 08:21:37;;;;;;;5.40;3.42;;;52.20;30.00;52.30;100915;;;;582802;242;23062;-87
2023/06/07 08:24:05;;;;;;;10.70;3.80;;;52.40;29.20;52.00;100915;;;;586992;240;23024;-87
2023/06/07 08:26:33;;;;;;;7.50;3.67;;;52.40;29.10;51.60;100928;;;;582959;242;23061;-87
2023/06/07 08:29:01;;;;;;;4.05;3.60;;;51.90;29.70;51.00;100916;;;;587023;240;23080;-86
2023/06/07 08:31:33;;;;;;;4.95;3.15;;;51.80;29.10;51.20;100913;;;;584089;242;23010;-86
2023/06/07 08:33:57;;;;;;;5.68;3.47;;;51.80;29.30;51.50;100917;;;;573398;246;24126;-87
2023/06/07 08:36:26;;;;;;;10.77;3.67;;;52.00;28.90;51.40;100920;;;;586839;241;23012;-88
2023/06/07 08:38:54;;;;;;;8.32;3.50;;;52.00;29.20;51.50;100911;;;;587196;241;23016;-87
2023/06/07 08:41:22;;;;;;;3.25;3.00;;;52.00;29.40;51.60;100918;;;;584116;242;23020;-87
2023/06/07 08:43:50;;;;;;;4.07;3.30;;;52.00;29.40;51.60;100922;;;;596455;239;24119;-88
2023/06/07 08:46:18;;;;;;;4.40;4.00;;;51.90;29.30;51.60;100925;;;;581618;245;23060;-87
2023/06/07 08:48:46;;;;;;;6.45;3.50;;;52.00;29.50;51.30;100924;;;;590676;243;23036;-88
2023/06/07 08:51:14;;;;;;;3.62;3.03;;;51.80;28.80;51.10;100916;;;;577500;244;23074;-88
2023/06/07 08:53:42;;;;;;;7.65;3.90;;;51.60;28.70;50.90;100921;;;;580599;243;23099;-88
2023/06/07 08:56:13;;;;;;;4.55;3.22;;;51.60;28.70;50.90;100919;;;;577550;244;23080;-88
2023/06/07 08:58:37;;;;;;;4.47;2.97;;;51.50;28.90;50.70;100912;;;;567269;248;23158;-88
2023/06/07 09:01:09;;;;;;;4.85;3.30;;;51.50;28.70;50.80;100918;;;;582191;243;23044;-86
2023/06/07 09:03:36;;;;;;;4.32;3.37;;;51.50;28.80;50.90;100928;;;;577039;244;23145;-86
2023/06/07 09:06:08;;;;;;;5.18;3.40;;;51.70;28.50;50.60;100925;;;;582228;243;24086;-86
2023/06/07 09:08:32;;;;;;;3.50;3.20;;;51.70;28.20;50.10;100926;;;;580086;243;23030;-86
2023/06/07 09:11:00;;;;;;;3.55;3.25;;;51.40;28.40;50.20;100925;;;;580972;243;23054;-87
2023/06/07 09:13:36;;;;;;;4.40;3.10;;;51.20;28.90;50.30;100925;;;;593096;241;23053;-89
2023/06/07 09:16:00;;;;;;;3.45;3.20;;;51.20;28.70;50.40;100927;;;;578618;244;23077;-86
2023/06/07 09:18:53;;;;;;;6.25;3.20;;;51.50;28.10;50.20;100920;;;;581441;242;23022;-89
2023/06/07 09:21:22;;;;;;;3.33;3.12;;;51.50;28.60;50.50;100924;;;;580186;243;23035;-88
2023/06/07 09:23:46;;;;;;;5.90;3.33;;;51.60;28.60;51.00;100920;;;;584953;243;23101;-88
2023/06/07 09:26:17;;;;;;;3.20;2.90;;;51.80;27.90;50.80;100922;;;;572891;246;23111;-88
2023/06/07 09:28:45;;;;;;;5.82;3.00;;;51.90;28.20;50.90;100921;;;;576273;245;23109;-89
2023/06/07 09:31:10;;;;;;;3.10;2.80;;;52.00;28.30;50.90;100925;;;;572417;246;23121;-87
2023/06/07 09:33:41;;;;;;;3.67;3.12;;;52.00;28.20;51.10;100920;;;;575525;245;23051;-87
2023/06/07 09:36:09;;;;;;;4.28;3.00;;;52.10;27.80;50.50;100917;;;;572069;246;23146;-88
2023/06/07 09:38:37;;;;;;;6.70;2.97;;;51.90;28.00;50.60;100922;;;;562138;254;24188;-86
2023/06/07 09:41:05;;;;;;;4.35;3.22;;;51.90;27.90;50.60;100927;;;;575586;245;24132;-88
2023/06/07 09:43:46;;;;;;;2.95;2.75;;;51.90;27.80;50.80;100921;;;;572581;246;23081;-89
2023/06/07 09:46:12;;;;;;;3.10;2.90;;;51.90;27.60;50.40;100922;;;;560885;250;23151;-88
2023/06/07 09:48:54;;;;;;;5.10;3.03;;;51.70;27.70;50.40;100939;;;;574777;245;24137;-88
2023/06/07 09:51:21;;;;;;;6.43;2.78;;;51.70;27.60;50.70;100926;;;;575173;242;23121;-88
2023/06/07 09:53:56;;;;;;;9.05;3.40;;;52.00;27.80;50.80;100924;;;;585436;241;23083;-90
2023/06/07 09:56:23;;;;;;;7.35;3.10;;;52.00;27.90;50.20;100923;;;;594843;241;23062;-89
2023/06/07 09:58:49;;;;;;;13.80;3.55;;;51.60;28.30;50.30;100923;;;;582220;242;23034;-88
2023/06/07 10:01:32;;;;;;;7.72;3.85;;;51.50;27.90;50.30;100924;;;;582082;241;34862;-89
2023/06/07 10:04:03;;;;;;;3.08;2.78;;;51.50;27.70;49.90;100921;;;;589070;241;23104;-88
2023/06/07 10:06:28;;;;;;;3.08;2.90;;;51.30;28.10;49.90;100912;;;;585340;241;23065;-88
2023/06/07 10:09:00;;;;;;;3.58;2.97;;;51.30;28.10;49.90;100918;;;;593230;242;23037;-88
2023/06/07 10:11:23;;;;;;;5.70;3.50;;;51.20;27.70;49.70;100921;;;;595664;241;26326;-90
2023/06/07 10:13:51;;;;;;;4.25;3.25;;;51.00;28.10;49.60;100912;;;;584200;242;23084;-88
2023/06/07 10:16:19;;;;;;;3.60;3.30;;;50.70;27.90;48.80;100916;;;;596130;239;23287;-87
2023/06/07 10:18:47;;;;;;;5.70;2.60;;;50.30;28.30;47.90;100916;;;;582664;242;23045;-87
2023/06/07 10:21:15;;;;;;;12.63;4.15;;;49.60;28.40;46.90;100910;;;;586029;240;23021;-87
2023/06/07 10:23:52;;;;;;;6.25;3.40;;;48.60;29.10;45.90;100910;;;;588338;240;23028;-87
2023/06/07 10:26:23;;;;;;;7.53;3.78;;;47.70;29.00;45.20;100906;;;;583748;241;23154;-88
2023/06/07 10:28:54;;;;;;;4.20;3.30;;;46.90;29.50;44.40;100915;;;;596005;240;23054;-87
2023/06/07 10:31:24;;;;;;;11.35;3.78;;;46.10;30.00;43.40;100904;;;;583178;242;23031;-83
2023/06/07 10:33:50;;;;;;;6.35;3.70;;;45.10;30.30;42.20;100904;;;;587821;242;23080;-85
2023/06/07 10:36:19;;;;;;;8.20;3.95;;;43.90;30.90;41.10;100907;;;;563303;250;23092;-88
2023/06/07 10:38:48;;;;;;;10.70;3.58;;;42.80;31.40;40.00;100904;;;;579013;243;23069;-87
2023/06/07 10:41:13;;;;;;;7.50;3.78;;;41.60;32.30;38.90;100898;;;;572670;246;23061;-88
2023/06/07 10:43:46;;;;;;;16.55;4.30;;;40.20;33.10;37.60;100898;;;;577419;245;23057;-82
2023/06/07 10:46:24;;;;;;;8.50;3.80;;;38.70;34.00;36.20;100906;;;;578251;243;23081;-86
2023/06/07 10:48:55;;;;;;;10.63;3.87;;;37.20;35.30;34.80;100901;;;;576933;245;23197;-84
2023/06/07 10:51:51;;;;;;;19.05;4.25;;;34.60;38.30;33.70;100897;;;;575920;243;23126;-85
2023/06/07 10:54:19;;;;;;;15.80;4.40;;;34.50;38.20;32.60;100884;;;;585756;244;23113;-87
2023/06/07 10:56:41;;;;;;;6.00;3.75;;;33.40;39.60;31.80;100893;;;;579074;243;23107;-85
2023/06/07 10:59:15;;;;;;;22.30;5.53;;;32.50;40.30;31.00;100895;;;;577071;245;23104;-85
2023/06/07 11:01:46;;;;;;;11.73;4.30;;;31.70;41.70;30.40;100881;;;;588977;244;23128;-86
2023/06/07 11:04:39;;;;;;;10.27;3.72;;;31.00;42.30;29.80;100886;;;;588967;244;23104;-87
2023/06/07 11:07:18;;;;;;;11.15;2.97;;;30.40;43.40;29.30;100878;;;;583802;244;23142;-86
2023/06/07 11:09:49;;;;;;;10.03;3.40;;;29.80;44.00;28.60;100875;;;;577151;245;24148;-85
2023/06/07 11:12:40;;;;;;;7.37;3.47;;;28.60;45.00;28.10;100867;;;;588803;244;23105;-85
2023/06/07 11:15:45;;;;;;;11.23;3.47;;;28.60;45.00;27.60;100880;;;;588479;244;24181;-84
2023/06/07 11:18:03;;;;;;;11.67;3.23;;;28.20;46.10;27.10;100862;;;;588913;243;23135;-84